You are listening to:
KPOU Ground/Tower - Poughkeepsie, New York, United States

KPOU 040153Z AUTO VRB03KT 10SM FEW090 19/18 A2965 RMK AO2 SLP037 T01940178

If stream doesn't start automatically press the play button
If stream stops then reload player then press play